Arriba, Colorado
Current Conditions -  °F | °C
As of 1:55 PM on Wednesday 26 Nov 2014 (Local Time) from KLIC Reporting Station
Clear Clear  
Wind Chill:   Ceiling: Unl
Heat Index:   Visibility: 10mi
Dew Point: -4°   Wind: 10mph
Humidity: 53%   Direction: 200°SSW
Pressure: 30.16"   Gusts: NA
Location:  39.29°N, 103.28°W
Report Text: KLIC 262055Z AUTO 20009KT 10SM CLR 05/M04 A3016 RMK AO2 SLP221 T00501039 58019
Loading
Personal Weather Stations






























Interactive Weather Map New forecast layout! Learn more

10-Day Weather Forecast

Advertisements
Track Severe Weather on mobile